sensor_id;sensor_type;location;lat;lon;timestamp;temperature;humidity
36206;DHT22;22242;48.796;9.930;2023-09-18T00:00:10;21.50;99.90
36206;DHT22;22242;48.796;9.930;2023-09-18T00:02:38;21.50;99.90
36206;DHT22;22242;48.796;9.930;2023-09-18T00:05:06;21.90;99.90
36206;DHT22;22242;48.796;9.930;2023-09-18T00:07:33;21.90;99.90
36206;DHT22;22242;48.796;9.930;2023-09-18T00:10:00;21.90;99.90
36206;DHT22;22242;48.796;9.930;2023-09-18T00:12:26;21.90;99.90
36206;DHT22;22242;48.796;9.930;2023-09-18T00:14:55;21.80;99.90
36206;DHT22;22242;48.796;9.930;2023-09-18T00:17:22;21.60;99.90
36206;DHT22;22242;48.796;9.930;2023-09-18T00:19:49;21.50;99.90
36206;DHT22;22242;48.796;9.930;2023-09-18T00:22:17;21.40;99.90
36206;DHT22;22242;48.796;9.930;2023-09-18T00:24:44;21.40;99.90
36206;DHT22;22242;48.796;9.930;2023-09-18T00:27:11;21.90;99.90
36206;DHT22;22242;48.796;9.930;2023-09-18T00:29:39;22.00;99.90
36206;DHT22;22242;48.796;9.930;2023-09-18T00:32:07;21.90;99.90
36206;DHT22;22242;48.796;9.930;2023-09-18T00:34:34;21.60;99.90
36206;DHT22;22242;48.796;9.930;2023-09-18T00:37:01;21.70;99.90
36206;DHT22;22242;48.796;9.930;2023-09-18T00:39:28;21.60;99.90
36206;DHT22;22242;48.796;9.930;2023-09-18T00:41:57;21.40;99.90
36206;DHT22;22242;48.796;9.930;2023-09-18T00:44:24;21.60;99.90
36206;DHT22;22242;48.796;9.930;2023-09-18T00:46:52;21.50;99.90
36206;DHT22;22242;48.796;9.930;2023-09-18T00:49:22;21.50;99.90
36206;DHT22;22242;48.796;9.930;2023-09-18T00:51:51;21.30;99.90
36206;DHT22;22242;48.796;9.930;2023-09-18T00:54:18;21.20;99.90
36206;DHT22;22242;48.796;9.930;2023-09-18T00:56:46;21.20;99.90
36206;DHT22;22242;48.796;9.930;2023-09-18T00:59:19;21.20;99.90
36206;DHT22;22242;48.796;9.930;2023-09-18T01:01:48;21.20;99.90
36206;DHT22;22242;48.796;9.930;2023-09-18T01:04:16;21.10;99.90
36206;DHT22;22242;48.796;9.930;2023-09-18T01:06:45;20.90;99.90
36206;DHT22;22242;48.796;9.930;2023-09-18T01:09:12;20.90;99.90
36206;DHT22;22242;48.796;9.930;2023-09-18T01:11:47;20.70;99.90
36206;DHT22;22242;48.796;9.930;2023-09-18T01:14:20;20.80;99.90
36206;DHT22;22242;48.796;9.930;2023-09-18T01:16:53;20.90;99.90
36206;DHT22;22242;48.796;9.930;2023-09-18T01:19:36;21.10;99.90
36206;DHT22;22242;48.796;9.930;2023-09-18T01:22:05;21.10;99.90
36206;DHT22;22242;48.796;9.930;2023-09-18T01:24:34;21.10;99.90
36206;DHT22;22242;48.796;9.930;2023-09-18T01:27:01;21.10;99.90
36206;DHT22;22242;48.796;9.930;2023-09-18T01:29:30;21.20;99.90
36206;DHT22;22242;48.796;9.930;2023-09-18T01:31:57;21.20;99.90
36206;DHT22;22242;48.796;9.930;2023-09-18T01:34:28;21.40;99.90
36206;DHT22;22242;48.796;9.930;2023-09-18T01:36:58;21.50;99.90
36206;DHT22;22242;48.796;9.930;2023-09-18T01:39:25;21.70;99.90
36206;DHT22;22242;48.796;9.930;2023-09-18T01:41:59;21.60;99.90
36206;DHT22;22242;48.796;9.930;2023-09-18T01:44:27;21.80;99.90
36206;DHT22;22242;48.796;9.930;2023-09-18T01:46:56;21.80;99.90
36206;DHT22;22242;48.796;9.930;2023-09-18T01:49:28;21.70;99.90
36206;DHT22;22242;48.796;9.930;2023-09-18T01:51:56;21.80;99.90
36206;DHT22;22242;48.796;9.930;2023-09-18T01:54:23;22.00;99.90
36206;DHT22;22242;48.796;9.930;2023-09-18T01:56:51;22.30;99.90
36206;DHT22;22242;48.796;9.930;2023-09-18T01:59:22;22.20;99.90
36206;DHT22;22242;48.796;9.930;2023-09-18T02:01:49;22.20;99.90
36206;DHT22;22242;48.796;9.930;2023-09-18T02:04:16;22.50;99.90
36206;DHT22;22242;48.796;9.930;2023-09-18T02:06:45;22.60;99.90
36206;DHT22;22242;48.796;9.930;2023-09-18T02:09:13;22.70;99.90
36206;DHT22;22242;48.796;9.930;2023-09-18T02:11:42;22.70;99.90
36206;DHT22;22242;48.796;9.930;2023-09-18T02:14:10;22.70;99.90
36206;DHT22;22242;48.796;9.930;2023-09-18T02:16:40;22.60;99.90
36206;DHT22;22242;48.796;9.930;2023-09-18T02:19:08;22.40;99.90
36206;DHT22;22242;48.796;9.930;2023-09-18T02:21:36;22.20;99.90
36206;DHT22;22242;48.796;9.930;2023-09-18T02:24:05;22.20;99.90
36206;DHT22;22242;48.796;9.930;2023-09-18T02:26:32;22.10;99.90
36206;DHT22;22242;48.796;9.930;2023-09-18T02:29:00;22.00;99.90
36206;DHT22;22242;48.796;9.930;2023-09-18T02:31:29;22.20;99.90
36206;DHT22;22242;48.796;9.930;2023-09-18T02:33:58;22.30;99.90
36206;DHT22;22242;48.796;9.930;2023-09-18T02:36:25;22.20;99.90
36206;DHT22;22242;48.796;9.930;2023-09-18T02:38:52;22.10;99.90
36206;DHT22;22242;48.796;9.930;2023-09-18T02:41:19;22.00;99.90
36206;DHT22;22242;48.796;9.930;2023-09-18T02:43:46;21.90;99.90
36206;DHT22;22242;48.796;9.930;2023-09-18T02:46:13;21.80;99.90
36206;DHT22;22242;48.796;9.930;2023-09-18T02:48:40;21.70;99.90
36206;DHT22;22242;48.796;9.930;2023-09-18T02:51:08;21.50;99.90
36206;DHT22;22242;48.796;9.930;2023-09-18T02:53:36;21.40;99.90
36206;DHT22;22242;48.796;9.930;2023-09-18T02:56:03;21.50;99.90
36206;DHT22;22242;48.796;9.930;2023-09-18T02:58:30;21.60;99.90
36206;DHT22;22242;48.796;9.930;2023-09-18T03:00:57;21.50;99.90
36206;DHT22;22242;48.796;9.930;2023-09-18T03:03:27;21.30;99.90
36206;DHT22;22242;48.796;9.930;2023-09-18T03:06:00;21.30;99.90
36206;DHT22;22242;48.796;9.930;2023-09-18T03:08:30;21.20;99.90
36206;DHT22;22242;48.796;9.930;2023-09-18T03:10:58;21.10;99.90
36206;DHT22;22242;48.796;9.930;2023-09-18T03:13:26;20.90;99.90
36206;DHT22;22242;48.796;9.930;2023-09-18T03:15:54;20.80;99.90
36206;DHT22;22242;48.796;9.930;2023-09-18T03:18:23;20.70;99.90
36206;DHT22;22242;48.796;9.930;2023-09-18T03:20:50;20.70;99.90
36206;DHT22;22242;48.796;9.930;2023-09-18T03:23:17;20.60;99.90
36206;DHT22;22242;48.796;9.930;2023-09-18T03:25:45;20.70;99.90
36206;DHT22;22242;48.796;9.930;2023-09-18T03:28:13;20.70;99.90
36206;DHT22;22242;48.796;9.930;2023-09-18T03:30:40;20.60;99.90
36206;DHT22;22242;48.796;9.930;2023-09-18T03:33:07;20.50;99.90
36206;DHT22;22242;48.796;9.930;2023-09-18T03:35:45;20.50;99.90
36206;DHT22;22242;48.796;9.930;2023-09-18T03:38:13;20.50;99.90
36206;DHT22;22242;48.796;9.930;2023-09-18T03:40:41;20.40;99.90
36206;DHT22;22242;48.796;9.930;2023-09-18T03:43:11;20.40;99.90
36206;DHT22;22242;48.796;9.930;2023-09-18T03:45:39;20.30;99.90
36206;DHT22;22242;48.796;9.930;2023-09-18T03:48:08;20.20;99.90
36206;DHT22;22242;48.796;9.930;2023-09-18T03:50:34;20.30;99.90
36206;DHT22;22242;48.796;9.930;2023-09-18T03:53:02;20.50;99.90
36206;DHT22;22242;48.796;9.930;2023-09-18T03:55:29;20.60;99.90
36206;DHT22;22242;48.796;9.930;2023-09-18T03:57:56;20.60;99.90
36206;DHT22;22242;48.796;9.930;2023-09-18T04:00:25;20.50;99.90
36206;DHT22;22242;48.796;9.930;2023-09-18T04:02:52;20.40;99.90
36206;DHT22;22242;48.796;9.930;2023-09-18T04:05:19;20.40;99.90
36206;DHT22;22242;48.796;9.930;2023-09-18T04:07:46;20.40;99.90
36206;DHT22;22242;48.796;9.930;2023-09-18T04:10:13;20.20;99.90
36206;DHT22;22242;48.796;9.930;2023-09-18T04:12:45;20.00;99.90
36206;DHT22;22242;48.796;9.930;2023-09-18T04:15:14;19.90;99.90
36206;DHT22;22242;48.796;9.930;2023-09-18T04:17:44;19.90;99.90
36206;DHT22;22242;48.796;9.930;2023-09-18T04:20:11;19.80;99.90
36206;DHT22;22242;48.796;9.930;2023-09-18T04:22:43;19.70;99.90
36206;DHT22;22242;48.796;9.930;2023-09-18T04:25:10;19.70;99.90
36206;DHT22;22242;48.796;9.930;2023-09-18T04:27:37;19.70;99.90
36206;DHT22;22242;48.796;9.930;2023-09-18T04:30:06;20.00;99.90
36206;DHT22;22242;48.796;9.930;2023-09-18T04:32:35;20.10;99.90
36206;DHT22;22242;48.796;9.930;2023-09-18T04:35:04;20.20;99.90
36206;DHT22;22242;48.796;9.930;2023-09-18T04:37:36;20.20;99.90
36206;DHT22;22242;48.796;9.930;2023-09-18T04:40:05;20.10;99.90
36206;DHT22;22242;48.796;9.930;2023-09-18T04:42:36;19.90;99.90
36206;DHT22;22242;48.796;9.930;2023-09-18T04:45:04;19.60;99.90
36206;DHT22;22242;48.796;9.930;2023-09-18T04:47:32;19.50;99.90
36206;DHT22;22242;48.796;9.930;2023-09-18T04:49:59;19.40;99.90
36206;DHT22;22242;48.796;9.930;2023-09-18T04:52:28;19.30;99.90
36206;DHT22;22242;48.796;9.930;2023-09-18T04:54:54;19.20;99.90
36206;DHT22;22242;48.796;9.930;2023-09-18T04:57:23;19.10;99.90
36206;DHT22;22242;48.796;9.930;2023-09-18T04:59:50;19.10;99.90
36206;DHT22;22242;48.796;9.930;2023-09-18T05:02:17;19.10;99.90
36206;DHT22;22242;48.796;9.930;2023-09-18T05:04:44;19.20;99.90
36206;DHT22;22242;48.796;9.930;2023-09-18T05:07:11;19.20;99.90
36206;DHT22;22242;48.796;9.930;2023-09-18T05:09:39;19.30;99.90
36206;DHT22;22242;48.796;9.930;2023-09-18T05:12:08;19.10;99.90
36206;DHT22;22242;48.796;9.930;2023-09-18T05:14:39;19.20;99.90
36206;DHT22;22242;48.796;9.930;2023-09-18T05:17:09;19.10;99.90
36206;DHT22;22242;48.796;9.930;2023-09-18T05:19:36;19.10;99.90
36206;DHT22;22242;48.796;9.930;2023-09-18T05:22:03;19.10;99.90
36206;DHT22;22242;48.796;9.930;2023-09-18T05:24:30;19.10;99.90
36206;DHT22;22242;48.796;9.930;2023-09-18T05:26:59;19.10;99.90
36206;DHT22;22242;48.796;9.930;2023-09-18T05:29:26;19.10;99.90
36206;DHT22;22242;48.796;9.930;2023-09-18T05:31:52;19.30;99.90
36206;DHT22;22242;48.796;9.930;2023-09-18T05:34:20;19.30;99.90
36206;DHT22;22242;48.796;9.930;2023-09-18T05:36:47;19.40;99.90
36206;DHT22;22242;48.796;9.930;2023-09-18T05:39:14;19.40;99.90
36206;DHT22;22242;48.796;9.930;2023-09-18T05:41:41;19.60;99.90
36206;DHT22;22242;48.796;9.930;2023-09-18T05:44:09;19.60;99.90
36206;DHT22;22242;48.796;9.930;2023-09-18T05:46:36;19.60;99.90
36206;DHT22;22242;48.796;9.930;2023-09-18T05:49:03;19.70;99.90
36206;DHT22;22242;48.796;9.930;2023-09-18T05:51:30;19.80;99.90
36206;DHT22;22242;48.796;9.930;2023-09-18T05:53:58;19.90;99.90
36206;DHT22;22242;48.796;9.930;2023-09-18T05:56:25;19.90;99.90
36206;DHT22;22242;48.796;9.930;2023-09-18T05:58:52;19.90;99.90
36206;DHT22;22242;48.796;9.930;2023-09-18T06:01:22;19.80;99.90
36206;DHT22;22242;48.796;9.930;2023-09-18T06:03:49;19.70;99.90
36206;DHT22;22242;48.796;9.930;2023-09-18T06:06:16;19.70;99.90
36206;DHT22;22242;48.796;9.930;2023-09-18T06:08:43;19.80;99.90
36206;DHT22;22242;48.796;9.930;2023-09-18T06:11:10;20.30;99.90
36206;DHT22;22242;48.796;9.930;2023-09-18T06:13:37;20.30;99.90
36206;DHT22;22242;48.796;9.930;2023-09-18T06:16:05;20.30;99.90
36206;DHT22;22242;48.796;9.930;2023-09-18T06:18:35;20.30;99.90
36206;DHT22;22242;48.796;9.930;2023-09-18T06:21:04;20.30;99.90
36206;DHT22;22242;48.796;9.930;2023-09-18T06:23:31;20.40;99.90
36206;DHT22;22242;48.796;9.930;2023-09-18T06:25:59;20.60;99.90
36206;DHT22;22242;48.796;9.930;2023-09-18T06:28:27;20.70;99.90
36206;DHT22;22242;48.796;9.930;2023-09-18T06:30:54;20.90;99.90
36206;DHT22;22242;48.796;9.930;2023-09-18T06:33:22;21.20;99.90
36206;DHT22;22242;48.796;9.930;2023-09-18T06:35:50;21.80;99.90
36206;DHT22;22242;48.796;9.930;2023-09-18T06:38:18;22.40;99.90
36206;DHT22;22242;48.796;9.930;2023-09-18T06:40:46;22.60;99.90
36206;DHT22;22242;48.796;9.930;2023-09-18T06:43:13;22.90;99.90
36206;DHT22;22242;48.796;9.930;2023-09-18T06:45:40;23.10;99.90
36206;DHT22;22242;48.796;9.930;2023-09-18T06:48:07;23.40;99.90
36206;DHT22;22242;48.796;9.930;2023-09-18T06:50:34;23.60;99.90
36206;DHT22;22242;48.796;9.930;2023-09-18T06:53:03;23.80;99.90
36206;DHT22;22242;48.796;9.930;2023-09-18T06:55:30;24.00;99.90
36206;DHT22;22242;48.796;9.930;2023-09-18T06:57:57;23.80;99.90
36206;DHT22;22242;48.796;9.930;2023-09-18T07:00:24;23.60;99.90
36206;DHT22;22242;48.796;9.930;2023-09-18T07:02:51;23.20;99.90
36206;DHT22;22242;48.796;9.930;2023-09-18T07:05:18;22.80;99.90
36206;DHT22;22242;48.796;9.930;2023-09-18T07:07:45;22.70;99.90
36206;DHT22;22242;48.796;9.930;2023-09-18T07:10:13;22.50;99.90
36206;DHT22;22242;48.796;9.930;2023-09-18T07:12:40;22.30;99.90
36206;DHT22;22242;48.796;9.930;2023-09-18T07:15:08;22.40;99.90
36206;DHT22;22242;48.796;9.930;2023-09-18T07:17:35;22.30;99.90
36206;DHT22;22242;48.796;9.930;2023-09-18T07:20:02;22.20;99.90
36206;DHT22;22242;48.796;9.930;2023-09-18T07:22:35;22.00;99.90
36206;DHT22;22242;48.796;9.930;2023-09-18T07:25:02;22.20;99.90
36206;DHT22;22242;48.796;9.930;2023-09-18T07:27:31;22.20;99.90
36206;DHT22;22242;48.796;9.930;2023-09-18T07:29:58;22.20;99.90
36206;DHT22;22242;48.796;9.930;2023-09-18T07:32:25;22.20;99.90
36206;DHT22;22242;48.796;9.930;2023-09-18T07:34:54;22.30;99.90
36206;DHT22;22242;48.796;9.930;2023-09-18T07:37:21;22.30;99.90
36206;DHT22;22242;48.796;9.930;2023-09-18T07:39:48;22.30;99.90
36206;DHT22;22242;48.796;9.930;2023-09-18T07:42:15;22.50;99.90
36206;DHT22;22242;48.796;9.930;2023-09-18T07:44:44;22.40;99.90
36206;DHT22;22242;48.796;9.930;2023-09-18T07:47:11;22.30;99.90
36206;DHT22;22242;48.796;9.930;2023-09-18T07:49:37;22.10;99.90
36206;DHT22;22242;48.796;9.930;2023-09-18T07:52:05;22.10;99.90
36206;DHT22;22242;48.796;9.930;2023-09-18T07:54:32;22.10;99.90
36206;DHT22;22242;48.796;9.930;2023-09-18T07:56:59;22.00;99.90
36206;DHT22;22242;48.796;9.930;2023-09-18T07:59:27;22.00;99.90
36206;DHT22;22242;48.796;9.930;2023-09-18T08:01:56;22.30;99.90
36206;DHT22;22242;48.796;9.930;2023-09-18T08:04:24;22.20;99.90
36206;DHT22;22242;48.796;9.930;2023-09-18T08:06:51;22.10;99.90
36206;DHT22;22242;48.796;9.930;2023-09-18T08:09:18;22.10;99.90
36206;DHT22;22242;48.796;9.930;2023-09-18T08:11:45;22.10;99.90
36206;DHT22;22242;48.796;9.930;2023-09-18T08:14:12;22.20;99.90
36206;DHT22;22242;48.796;9.930;2023-09-18T08:16:39;22.00;99.90
36206;DHT22;22242;48.796;9.930;2023-09-18T08:19:07;22.10;99.90
36206;DHT22;22242;48.796;9.930;2023-09-18T08:21:35;22.20;99.90
36206;DHT22;22242;48.796;9.930;2023-09-18T08:24:03;22.20;99.90
36206;DHT22;22242;48.796;9.930;2023-09-18T08:26:30;22.00;99.90
36206;DHT22;22242;48.796;9.930;2023-09-18T08:28:57;22.20;99.90
36206;DHT22;22242;48.796;9.930;2023-09-18T08:31:24;22.20;99.90
36206;DHT22;22242;48.796;9.930;2023-09-18T08:33:53;22.20;99.90
36206;DHT22;22242;48.796;9.930;2023-09-18T08:36:21;22.20;99.90
36206;DHT22;22242;48.796;9.930;2023-09-18T08:38:48;22.30;99.90
36206;DHT22;22242;48.796;9.930;2023-09-18T08:41:18;22.30;99.90
36206;DHT22;22242;48.796;9.930;2023-09-18T08:43:48;22.10;99.90
36206;DHT22;22242;48.796;9.930;2023-09-18T08:46:16;22.20;99.90
36206;DHT22;22242;48.796;9.930;2023-09-18T08:48:44;22.40;99.90
36206;DHT22;22242;48.796;9.930;2023-09-18T08:51:12;22.30;99.90
36206;DHT22;22242;48.796;9.930;2023-09-18T08:53:41;22.30;99.90
36206;DHT22;22242;48.796;9.930;2023-09-18T08:56:08;22.60;99.90
36206;DHT22;22242;48.796;9.930;2023-09-18T08:58:37;22.50;99.90
36206;DHT22;22242;48.796;9.930;2023-09-18T09:01:06;22.20;99.90
36206;DHT22;22242;48.796;9.930;2023-09-18T09:03:35;22.40;99.90
36206;DHT22;22242;48.796;9.930;2023-09-18T09:06:02;22.50;99.90
36206;DHT22;22242;48.796;9.930;2023-09-18T09:08:29;22.30;99.90
36206;DHT22;22242;48.796;9.930;2023-09-18T09:10:57;22.50;99.90
36206;DHT22;22242;48.796;9.930;2023-09-18T09:13:25;22.50;99.90
36206;DHT22;22242;48.796;9.930;2023-09-18T09:15:54;22.30;99.90
36206;DHT22;22242;48.796;9.930;2023-09-18T09:18:22;22.60;99.90
36206;DHT22;22242;48.796;9.930;2023-09-18T09:20:53;22.30;99.90
36206;DHT22;22242;48.796;9.930;2023-09-18T09:23:24;22.10;99.90
36206;DHT22;22242;48.796;9.930;2023-09-18T09:25:51;21.80;99.90
36206;DHT22;22242;48.796;9.930;2023-09-18T09:28:31;21.70;99.90
36206;DHT22;22242;48.796;9.930;2023-09-18T09:31:02;21.60;99.90
36206;DHT22;22242;48.796;9.930;2023-09-18T09:33:29;21.70;99.90
36206;DHT22;22242;48.796;9.930;2023-09-18T09:35:57;21.50;99.90
36206;DHT22;22242;48.796;9.930;2023-09-18T09:38:29;21.70;99.90
36206;DHT22;22242;48.796;9.930;2023-09-18T09:40:57;21.60;99.90
36206;DHT22;22242;48.796;9.930;2023-09-18T09:43:26;21.50;99.90
36206;DHT22;22242;48.796;9.930;2023-09-18T09:45:58;21.60;99.90
36206;DHT22;22242;48.796;9.930;2023-09-18T09:48:26;21.40;99.90
36206;DHT22;22242;48.796;9.930;2023-09-18T09:50:58;21.30;99.90
36206;DHT22;22242;48.796;9.930;2023-09-18T09:53:43;21.40;99.90
36206;DHT22;22242;48.796;9.930;2023-09-18T09:56:12;21.40;99.90
36206;DHT22;22242;48.796;9.930;2023-09-18T09:58:40;21.20;99.90
36206;DHT22;22242;48.796;9.930;2023-09-18T10:01:12;21.10;99.90
36206;DHT22;22242;48.796;9.930;2023-09-18T10:03:43;21.00;99.90
36206;DHT22;22242;48.796;9.930;2023-09-18T10:06:10;21.00;99.90
36206;DHT22;22242;48.796;9.930;2023-09-18T10:08:39;20.70;99.90
36206;DHT22;22242;48.796;9.930;2023-09-18T10:11:08;20.30;99.90
36206;DHT22;22242;48.796;9.930;2023-09-18T10:13:41;20.30;99.90
36206;DHT22;22242;48.796;9.930;2023-09-18T10:16:11;19.90;99.90
36206;DHT22;22242;48.796;9.930;2023-09-18T10:18:48;19.80;99.90
36206;DHT22;22242;48.796;9.930;2023-09-18T10:21:28;19.10;99.90
36206;DHT22;22242;48.796;9.930;2023-09-18T10:24:13;18.70;99.90
36206;DHT22;22242;48.796;9.930;2023-09-18T10:26:47;18.60;99.90
36206;DHT22;22242;48.796;9.930;2023-09-18T10:29:15;18.40;99.90
36206;DHT22;22242;48.796;9.930;2023-09-18T10:31:46;18.40;99.90
36206;DHT22;22242;48.796;9.930;2023-09-18T10:34:13;18.30;99.90
36206;DHT22;22242;48.796;9.930;2023-09-18T10:36:43;18.20;99.90
36206;DHT22;22242;48.796;9.930;2023-09-18T10:39:13;18.20;99.90
36206;DHT22;22242;48.796;9.930;2023-09-18T10:41:47;18.20;99.90
36206;DHT22;22242;48.796;9.930;2023-09-18T10:44:16;18.20;99.90
36206;DHT22;22242;48.796;9.930;2023-09-18T10:46:45;18.20;99.90
36206;DHT22;22242;48.796;9.930;2023-09-18T10:49:12;18.10;99.90
36206;DHT22;22242;48.796;9.930;2023-09-18T10:51:40;18.10;99.90
36206;DHT22;22242;48.796;9.930;2023-09-18T10:54:08;18.00;99.90
36206;DHT22;22242;48.796;9.930;2023-09-18T10:56:35;18.00;99.90
36206;DHT22;22242;48.796;9.930;2023-09-18T10:59:05;18.00;99.90
36206;DHT22;22242;48.796;9.930;2023-09-18T11:01:34;18.00;99.90
36206;DHT22;22242;48.796;9.930;2023-09-18T11:04:05;17.90;99.90
36206;DHT22;22242;48.796;9.930;2023-09-18T11:07:01;18.00;99.90
36206;DHT22;22242;48.796;9.930;2023-09-18T11:09:30;18.20;99.90
